Time;durP1;ratioP1;P1;durP2;ratioP2;P2;SDS_P1;SDS_P2;PMS_P1;PMS_P2;Temp;Humidity;BMP_temperature;BMP_pressure;BME280_temperature;BME280_humidity;BME280_pressure;Samples;Min_cycle;Max_cycle;Signal;HPM_P1;HPM_P2
2022/05/04 00:01:08;;;;;;;11.90;3.00;;;;;;;;;;5049816;28;20057;-61
2022/05/04 00:03:40;;;;;;;11.03;2.83;;;;;;;;;;5033850;28;20037;-61
2022/05/04 00:06:07;;;;;;;16.17;3.23;;;;;;;;;;5036683;28;20083;-60
2022/05/04 00:08:33;;;;;;;11.63;3.00;;;;;;;;;;5030283;28;20624;-61
2022/05/04 00:10:59;;;;;;;15.73;3.47;;;;;;;;;;5034144;28;20818;-60
2022/05/04 00:13:25;;;;;;;10.70;3.40;;;;;;;;;;5048875;28;20051;-60
2022/05/04 00:15:51;;;;;;;11.17;3.63;;;;;;;;;;5045287;28;20419;-60
2022/05/04 00:18:18;;;;;;;9.50;2.80;;;;;;;;;;5048785;28;20052;-61
2022/05/04 00:20:43;;;;;;;11.53;3.40;;;;;;;;;;5048498;28;20099;-61
2022/05/04 00:23:10;;;;;;;10.93;2.73;;;;;;;;;;5049676;28;20041;-61
2022/05/04 00:25:36;;;;;;;9.90;3.20;;;;;;;;;;5049322;28;20043;-61
2022/05/04 00:28:04;;;;;;;10.10;3.20;;;;;;;;;;5049756;28;20051;-60
2022/05/04 00:30:30;;;;;;;11.33;3.30;;;;;;;;;;5048060;28;20064;-61
2022/05/04 00:32:56;;;;;;;10.07;2.97;;;;;;;;;;5047925;28;20057;-60
2022/05/04 00:35:22;;;;;;;12.97;3.60;;;;;;;;;;5048593;28;20064;-61
2022/05/04 00:37:48;;;;;;;12.83;3.20;;;;;;;;;;5048151;28;20033;-61
2022/05/04 00:40:14;;;;;;;12.37;3.47;;;;;;;;;;5048861;28;20041;-60
2022/05/04 00:42:40;;;;;;;13.90;3.43;;;;;;;;;;5040828;28;20049;-61
2022/05/04 00:45:06;;;;;;;11.13;3.20;;;;;;;;;;5037649;28;20045;-60
2022/05/04 00:47:33;;;;;;;13.20;3.00;;;;;;;;;;5034978;28;20486;-60
2022/05/04 00:50:04;;;;;;;9.67;3.23;;;;;;;;;;5029304;28;20041;-60
2022/05/04 00:52:31;;;;;;;18.00;3.70;;;;;;;;;;5029987;28;20136;-61
2022/05/04 00:54:57;;;;;;;11.77;4.10;;;;;;;;;;5029240;28;20041;-60
2022/05/04 01:00:09;;;;;;;15.20;4.03;;;;;;;;;;5028897;28;20045;-60
2022/05/04 01:02:37;;;;;;;15.07;3.63;;;;;;;;;;5043845;28;20069;-61
2022/05/04 01:05:04;;;;;;;12.27;3.03;;;;;;;;;;5050116;28;20041;-60
2022/05/04 01:07:30;;;;;;;11.83;3.33;;;;;;;;;;5050561;28;20078;-60
2022/05/04 01:09:56;;;;;;;14.37;3.00;;;;;;;;;;5051952;28;20037;-60
2022/05/04 01:12:22;;;;;;;10.90;3.50;;;;;;;;;;5037213;28;20753;-61
2022/05/04 01:14:48;;;;;;;12.13;2.97;;;;;;;;;;5032317;28;20049;-61
2022/05/04 01:17:14;;;;;;;10.87;3.10;;;;;;;;;;5044971;28;20132;-60
2022/05/04 01:19:40;;;;;;;12.57;3.90;;;;;;;;;;5052247;28;20045;-60
2022/05/04 01:22:06;;;;;;;9.90;3.57;;;;;;;;;;5051890;28;20407;-61
2022/05/04 01:24:32;;;;;;;9.07;3.40;;;;;;;;;;5052157;28;20037;-60
2022/05/04 01:26:58;;;;;;;11.90;3.10;;;;;;;;;;5038315;28;20041;-60
2022/05/04 01:29:24;;;;;;;13.03;3.57;;;;;;;;;;5031154;28;20064;-60
2022/05/04 01:31:50;;;;;;;10.00;3.13;;;;;;;;;;5043261;28;20053;-60
2022/05/04 01:34:17;;;;;;;14.67;3.27;;;;;;;;;;5050885;28;20056;-60
2022/05/04 01:36:43;;;;;;;20.07;5.07;;;;;;;;;;5050159;28;20166;-60
2022/05/04 01:39:09;;;;;;;10.30;2.77;;;;;;;;;;5049752;28;20130;-60
2022/05/04 01:44:20;;;;;;;12.03;3.20;;;;;;;;;;5048281;28;20193;-60
2022/05/04 01:46:46;;;;;;;13.50;3.53;;;;;;;;;;5048724;28;20075;-61
2022/05/04 01:49:12;;;;;;;10.70;3.40;;;;;;;;;;5050713;28;20037;-60
2022/05/04 01:51:38;;;;;;;15.03;3.43;;;;;;;;;;5049357;28;20040;-60
2022/05/04 01:54:04;;;;;;;9.17;3.90;;;;;;;;;;5050317;28;20503;-60
2022/05/04 01:56:30;;;;;;;16.80;3.67;;;;;;;;;;5050073;28;20041;-61
2022/05/04 01:58:56;;;;;;;11.77;3.07;;;;;;;;;;5049436;28;20083;-61
2022/05/04 02:01:22;;;;;;;10.03;3.90;;;;;;;;;;5043969;28;20049;-60
2022/05/04 02:03:48;;;;;;;25.40;4.90;;;;;;;;;;5049714;28;20052;-61
2022/05/04 02:06:15;;;;;;;10.33;3.40;;;;;;;;;;5048512;28;20047;-60
2022/05/04 02:08:41;;;;;;;9.20;2.87;;;;;;;;;;5049858;28;20052;-61
2022/05/04 02:11:07;;;;;;;11.73;3.30;;;;;;;;;;5049459;28;20044;-60
2022/05/04 02:13:33;;;;;;;13.57;4.27;;;;;;;;;;5036412;28;20049;-60
2022/05/04 02:15:59;;;;;;;7.50;2.60;;;;;;;;;;5040556;28;20507;-60
2022/05/04 02:18:26;;;;;;;16.57;4.13;;;;;;;;;;5045439;28;20049;-60
2022/05/04 02:20:52;;;;;;;10.57;3.07;;;;;;;;;;5039795;28;20479;-61
2022/05/04 02:23:18;;;;;;;12.93;4.83;;;;;;;;;;5040000;28;20084;-61
2022/05/04 02:25:44;;;;;;;14.27;3.97;;;;;;;;;;5042782;28;20083;-60
2022/05/04 02:28:10;;;;;;;10.77;3.53;;;;;;;;;;5049926;28;20152;-61
2022/05/04 02:30:36;;;;;;;11.60;3.57;;;;;;;;;;5050260;28;20513;-60
2022/05/04 02:33:02;;;;;;;14.60;4.90;;;;;;;;;;5049730;28;20132;-60
2022/05/04 02:38:13;;;;;;;16.47;4.23;;;;;;;;;;5049729;28;20045;-60
2022/05/04 02:40:39;;;;;;;10.53;3.73;;;;;;;;;;5030918;28;20042;-60
2022/05/04 02:43:07;;;;;;;13.13;3.53;;;;;;;;;;5030563;28;20132;-60
2022/05/04 02:45:33;;;;;;;10.37;3.60;;;;;;;;;;5047690;28;20051;-60
2022/05/04 02:47:59;;;;;;;11.90;3.60;;;;;;;;;;5050238;28;20132;-60
2022/05/04 02:50:25;;;;;;;9.97;3.47;;;;;;;;;;5049921;28;20553;-60
2022/05/04 02:52:51;;;;;;;12.13;4.13;;;;;;;;;;5040389;28;20410;-61
2022/05/04 02:55:17;;;;;;;10.03;3.73;;;;;;;;;;5036725;28;20809;-60
2022/05/04 02:57:43;;;;;;;12.13;3.97;;;;;;;;;;5039087;28;20048;-61
2022/05/04 03:00:10;;;;;;;13.13;4.43;;;;;;;;;;5038443;28;20037;-61
2022/05/04 03:02:36;;;;;;;16.17;4.57;;;;;;;;;;5036239;28;20491;-61
2022/05/04 03:05:04;;;;;;;17.17;4.40;;;;;;;;;;5039960;28;21349;-60
2022/05/04 03:07:30;;;;;;;14.13;4.80;;;;;;;;;;5039362;28;20041;-60
2022/05/04 03:09:57;;;;;;;10.63;3.97;;;;;;;;;;5039711;28;20040;-61
2022/05/04 03:12:23;;;;;;;9.17;3.70;;;;;;;;;;5034609;28;20053;-61
2022/05/04 03:14:50;;;;;;;17.73;4.07;;;;;;;;;;5039992;28;20832;-61
2022/05/04 03:17:16;;;;;;;13.27;5.47;;;;;;;;;;5039907;28;20037;-61
2022/05/04 03:19:42;;;;;;;10.77;3.83;;;;;;;;;;5037411;28;20073;-61
2022/05/04 03:22:08;;;;;;;11.73;4.20;;;;;;;;;;5038260;28;20073;-61
2022/05/04 03:24:34;;;;;;;9.37;4.27;;;;;;;;;;5039070;28;20037;-61
2022/05/04 03:27:00;;;;;;;9.73;4.20;;;;;;;;;;5037057;28;20392;-61
2022/05/04 03:29:26;;;;;;;15.97;4.93;;;;;;;;;;5038194;28;20060;-60
2022/05/04 03:31:52;;;;;;;14.30;4.73;;;;;;;;;;5036801;28;20041;-60
2022/05/04 03:34:18;;;;;;;11.63;4.60;;;;;;;;;;5039455;28;20419;-61
2022/05/04 03:36:45;;;;;;;13.30;4.73;;;;;;;;;;5039682;28;20091;-61
2022/05/04 03:39:11;;;;;;;13.03;3.73;;;;;;;;;;5041947;28;20501;-60
2022/05/04 03:41:38;;;;;;;16.80;4.43;;;;;;;;;;5047855;28;20418;-61
2022/05/04 03:44:05;;;;;;;14.27;4.30;;;;;;;;;;5049219;28;20103;-60
2022/05/04 03:46:41;;;;;;;9.47;4.67;;;;;;;;;;5047339;28;20697;-60
2022/05/04 03:49:08;;;;;;;12.37;5.23;;;;;;;;;;5049062;28;20049;-60
2022/05/04 03:51:34;;;;;;;12.10;4.20;;;;;;;;;;5046478;28;20110;-60
2022/05/04 03:54:00;;;;;;;13.57;4.10;;;;;;;;;;5029958;28;20049;-60
2022/05/04 03:56:26;;;;;;;9.77;3.90;;;;;;;;;;5035064;28;20049;-60
2022/05/04 03:58:52;;;;;;;11.33;3.93;;;;;;;;;;5049001;28;20048;-60
2022/05/04 04:01:18;;;;;;;15.00;4.10;;;;;;;;;;5047870;28;20055;-61
2022/05/04 04:03:45;;;;;;;18.70;5.77;;;;;;;;;;5048563;28;20045;-60
2022/05/04 04:06:11;;;;;;;10.30;3.77;;;;;;;;;;5048573;28;20052;-61
2022/05/04 04:08:37;;;;;;;16.33;4.70;;;;;;;;;;5048122;28;20051;-60
2022/05/04 04:11:03;;;;;;;14.37;4.67;;;;;;;;;;5046786;28;20428;-60
2022/05/04 04:13:30;;;;;;;11.53;4.43;;;;;;;;;;5048830;28;20048;-60
2022/05/04 04:15:56;;;;;;;18.90;5.30;;;;;;;;;;5046527;28;20212;-60
2022/05/04 04:18:23;;;;;;;12.40;4.87;;;;;;;;;;5029074;28;20043;-60
2022/05/04 04:23:35;;;;;;;14.00;5.53;;;;;;;;;;5028626;28;20495;-60
2022/05/04 04:26:05;;;;;;;9.87;4.17;;;;;;;;;;5027120;28;20050;-61
2022/05/04 04:28:31;;;;;;;13.67;4.13;;;;;;;;;;5028910;28;20046;-60
2022/05/04 04:30:57;;;;;;;11.17;4.20;;;;;;;;;;5028121;28;20080;-61
2022/05/04 04:33:26;;;;;;;17.27;5.37;;;;;;;;;;5027944;28;20053;-61
2022/05/04 04:35:56;;;;;;;13.90;4.50;;;;;;;;;;5026719;28;20052;-61
2022/05/04 04:38:22;;;;;;;20.23;4.47;;;;;;;;;;5027899;28;20387;-61
2022/05/04 04:40:48;;;;;;;16.23;3.90;;;;;;;;;;5031363;28;20464;-60
2022/05/04 04:43:17;;;;;;;12.57;3.70;;;;;;;;;;5032480;28;20045;-61
2022/05/04 04:45:50;;;;;;;12.80;4.33;;;;;;;;;;5037382;28;20564;-61
2022/05/04 04:48:16;;;;;;;13.30;3.73;;;;;;;;;;5052383;28;20120;-60
2022/05/04 04:50:43;;;;;;;11.63;4.33;;;;;;;;;;5049926;28;20045;-60
2022/05/04 04:53:09;;;;;;;13.10;4.00;;;;;;;;;;5052005;28;20049;-60
2022/05/04 04:55:35;;;;;;;10.60;3.97;;;;;;;;;;5035160;28;20049;-61
2022/05/04 04:58:02;;;;;;;14.83;4.10;;;;;;;;;;5031914;28;20049;-61
2022/05/04 05:00:28;;;;;;;15.13;5.97;;;;;;;;;;5031830;28;20472;-60
2022/05/04 05:02:54;;;;;;;10.47;3.60;;;;;;;;;;5031032;28;20053;-61
2022/05/04 05:05:20;;;;;;;12.83;4.50;;;;;;;;;;5050949;28;20057;-60
2022/05/04 05:07:46;;;;;;;12.63;4.17;;;;;;;;;;5051402;28;20048;-60
2022/05/04 05:10:12;;;;;;;10.63;3.83;;;;;;;;;;5051322;28;20088;-60
2022/05/04 05:12:38;;;;;;;10.43;4.40;;;;;;;;;;5039511;28;20045;-61
2022/05/04 05:17:50;;;;;;;13.80;3.50;;;;;;;;;;5041880;28;20418;-60
2022/05/04 05:20:16;;;;;;;11.17;3.87;;;;;;;;;;5051605;28;20428;-61
2022/05/04 05:22:42;;;;;;;9.70;3.40;;;;;;;;;;5051308;28;20099;-61
2022/05/04 05:25:08;;;;;;;14.63;4.47;;;;;;;;;;5051549;28;20099;-61
2022/05/04 05:27:34;;;;;;;10.83;3.70;;;;;;;;;;5051340;28;20595;-61
2022/05/04 05:30:00;;;;;;;11.93;3.43;;;;;;;;;;5046453;28;20063;-60
2022/05/04 05:32:26;;;;;;;13.50;3.20;;;;;;;;;;5051346;28;20098;-61
2022/05/04 05:34:52;;;;;;;13.47;3.53;;;;;;;;;;5050714;28;20083;-61
2022/05/04 05:37:20;;;;;;;13.10;3.60;;;;;;;;;;5050898;28;20045;-60
2022/05/04 05:39:46;;;;;;;11.57;3.57;;;;;;;;;;5030986;28;20423;-61
2022/05/04 05:42:13;;;;;;;12.20;3.40;;;;;;;;;;5031336;28;20099;-61
2022/05/04 05:44:39;;;;;;;11.57;3.73;;;;;;;;;;5031264;28;20458;-61
2022/05/04 05:47:05;;;;;;;7.43;2.90;;;;;;;;;;5030866;28;20081;-61
2022/05/04 05:49:31;;;;;;;13.40;3.93;;;;;;;;;;5030584;28;20056;-61
2022/05/04 05:51:58;;;;;;;15.40;3.37;;;;;;;;;;5030788;28;20041;-61
2022/05/04 05:54:24;;;;;;;12.43;2.70;;;;;;;;;;5030619;28;20045;-61
2022/05/04 05:56:50;;;;;;;17.17;4.07;;;;;;;;;;5031069;28;20041;-61
2022/05/04 05:59:16;;;;;;;10.70;2.80;;;;;;;;;;5030754;28;20041;-61
2022/05/04 06:01:42;;;;;;;8.33;2.50;;;;;;;;;;5030850;28;20099;-61
2022/05/04 06:04:08;;;;;;;10.33;3.57;;;;;;;;;;5030812;28;20514;-61
2022/05/04 06:06:34;;;;;;;9.17;3.23;;;;;;;;;;5031786;28;20041;-61
2022/05/04 06:09:00;;;;;;;11.17;2.80;;;;;;;;;;5030650;28;20057;-61
2022/05/04 06:11:26;;;;;;;8.93;2.70;;;;;;;;;;5030923;28;20515;-61
2022/05/04 06:13:56;;;;;;;9.87;2.93;;;;;;;;;;5030250;28;20053;-61
2022/05/04 06:16:22;;;;;;;12.80;2.83;;;;;;;;;;5030530;28;20577;-61
2022/05/04 06:18:48;;;;;;;8.07;2.73;;;;;;;;;;5029946;28;20499;-61
2022/05/04 06:21:14;;;;;;;7.80;2.70;;;;;;;;;;5030963;28;20043;-61
2022/05/04 06:23:40;;;;;;;16.43;3.50;;;;;;;;;;5029203;28;20048;-61
2022/05/04 06:26:06;;;;;;;8.83;2.70;;;;;;;;;;5031033;28;20045;-62
2022/05/04 06:28:32;;;;;;;17.13;3.03;;;;;;;;;;5030587;28;20064;-61
2022/05/04 06:36:27;;;;;;;11.37;2.83;;;;;;;;;;5043062;28;20045;-61
2022/05/04 06:38:53;;;;;;;15.67;3.87;;;;;;;;;;5050663;28;20083;-61
2022/05/04 06:41:19;;;;;;;10.93;2.67;;;;;;;;;;5049143;28;20077;-61
2022/05/04 06:43:45;;;;;;;12.90;2.53;;;;;;;;;;5050226;28;20396;-61
2022/05/04 06:46:12;;;;;;;12.03;2.53;;;;;;;;;;5050334;28;20055;-61
2022/05/04 06:48:38;;;;;;;9.87;2.43;;;;;;;;;;5033110;28;20602;-61
2022/05/04 06:51:04;;;;;;;18.17;3.10;;;;;;;;;;5046114;28;20045;-61
2022/05/04 06:53:30;;;;;;;9.90;3.13;;;;;;;;;;5049933;28;20103;-61
2022/05/04 06:55:56;;;;;;;8.23;2.60;;;;;;;;;;5044209;28;20170;-61
2022/05/04 06:58:22;;;;;;;9.47;2.60;;;;;;;;;;5050356;28;20041;-61
2022/05/04 07:00:48;;;;;;;6.70;2.73;;;;;;;;;;5048003;28;20095;-61
2022/05/04 07:03:14;;;;;;;9.73;2.53;;;;;;;;;;5043549;28;20095;-61
2022/05/04 07:05:40;;;;;;;9.47;2.60;;;;;;;;;;5042315;28;20045;-61
2022/05/04 07:08:06;;;;;;;8.07;2.23;;;;;;;;;;5048681;28;20462;-61
2022/05/04 07:10:32;;;;;;;9.97;3.47;;;;;;;;;;5062911;28;20040;-61
2022/05/04 07:12:58;;;;;;;9.97;2.70;;;;;;;;;;5048671;28;20098;-61
2022/05/04 07:15:24;;;;;;;11.63;2.30;;;;;;;;;;5035468;28;20581;-61
2022/05/04 07:17:51;;;;;;;11.17;2.50;;;;;;;;;;5044158;28;20084;-61
2022/05/04 07:20:17;;;;;;;8.67;2.90;;;;;;;;;;5049447;28;20068;-61
2022/05/04 07:22:43;;;;;;;6.30;2.00;;;;;;;;;;5048179;28;20051;-61
2022/05/04 07:25:09;;;;;;;8.63;2.47;;;;;;;;;;5049679;28;20053;-61
2022/05/04 07:27:35;;;;;;;6.10;1.97;;;;;;;;;;5048358;28;20505;-61
2022/05/04 07:30:01;;;;;;;11.00;3.27;;;;;;;;;;5045445;28;20053;-61
2022/05/04 07:32:27;;;;;;;10.03;2.40;;;;;;;;;;5033737;28;20056;-61
2022/05/04 07:34:53;;;;;;;9.27;2.47;;;;;;;;;;5050892;28;20040;-61
2022/05/04 07:37:19;;;;;;;19.30;2.80;;;;;;;;;;5036166;28;20053;-61
2022/05/04 07:42:30;;;;;;;9.67;2.97;;;;;;;;;;5047302;28;20045;-61
2022/05/04 07:45:07;;;;;;;8.67;2.27;;;;;;;;;;5042035;28;20472;-61
2022/05/04 07:47:34;;;;;;;10.03;3.17;;;;;;;;;;5038659;28;20037;-61
2022/05/04 07:50:00;;;;;;;8.30;2.30;;;;;;;;;;5039085;28;20107;-61
2022/05/04 07:52:27;;;;;;;12.43;3.13;;;;;;;;;;5046015;28;20041;-61
2022/05/04 07:54:54;;;;;;;11.97;2.93;;;;;;;;;;5047823;28;20068;-61
2022/05/04 07:57:20;;;;;;;7.20;2.10;;;;;;;;;;5064756;28;20151;-61
2022/05/04 08:05:33;;;;;;;9.10;2.60;;;;;;;;;;5044418;28;20053;-61
2022/05/04 08:07:59;;;;;;;8.90;2.70;;;;;;;;;;5048304;28;20041;-61
2022/05/04 08:10:27;;;;;;;7.97;2.73;;;;;;;;;;5047559;28;20123;-61
2022/05/04 08:12:53;;;;;;;9.13;1.90;;;;;;;;;;5033178;28;20132;-61
2022/05/04 08:15:19;;;;;;;9.90;2.90;;;;;;;;;;5048017;28;20059;-61
2022/05/04 08:17:45;;;;;;;7.53;2.33;;;;;;;;;;5047579;28;20593;-61
2022/05/04 08:20:11;;;;;;;6.17;2.63;;;;;;;;;;5048692;28;20055;-60
2022/05/04 08:22:38;;;;;;;7.90;2.63;;;;;;;;;;5047380;28;20067;-61
2022/05/04 08:25:04;;;;;;;11.00;2.80;;;;;;;;;;5030398;28;20042;-61
2022/05/04 08:27:32;;;;;;;9.93;2.63;;;;;;;;;;5052054;28;20043;-60
2022/05/04 08:29:59;;;;;;;9.27;2.53;;;;;;;;;;5046829;28;20061;-61
2022/05/04 08:32:29;;;;;;;7.13;2.37;;;;;;;;;;5040036;28;20160;-61
2022/05/04 08:34:56;;;;;;;7.83;2.60;;;;;;;;;;5046264;28;20137;-61
2022/05/04 08:37:23;;;;;;;7.93;2.20;;;;;;;;;;5048101;28;20502;-61
2022/05/04 08:39:49;;;;;;;8.13;2.23;;;;;;;;;;5065882;28;20144;-61
2022/05/04 08:42:15;;;;;;;9.70;2.97;;;;;;;;;;5051966;28;20131;-61
2022/05/04 08:44:42;;;;;;;8.43;2.73;;;;;;;;;;5047554;28;20067;-61
2022/05/04 08:47:12;;;;;;;10.63;2.50;;;;;;;;;;5031121;28;20061;-61
2022/05/04 08:49:38;;;;;;;5.90;2.53;;;;;;;;;;5048035;28;20051;-61
2022/05/04 08:52:06;;;;;;;10.20;2.50;;;;;;;;;;5032067;28;20045;-61
2022/05/04 08:54:32;;;;;;;8.53;2.13;;;;;;;;;;5041204;28;20037;-61
2022/05/04 08:56:59;;;;;;;11.13;2.10;;;;;;;;;;5046936;28;20037;-61
2022/05/04 08:59:28;;;;;;;6.77;2.20;;;;;;;;;;5047405;28;20053;-61
2022/05/04 09:01:54;;;;;;;8.13;2.27;;;;;;;;;;5047212;28;20132;-61
2022/05/04 09:04:20;;;;;;;6.57;2.00;;;;;;;;;;5046930;28;20578;-61
2022/05/04 09:06:46;;;;;;;6.00;2.00;;;;;;;;;;5046361;28;20080;-61
2022/05/04 09:09:13;;;;;;;8.13;1.80;;;;;;;;;;5047656;28;20078;-61
2022/05/04 09:11:39;;;;;;;10.30;2.17;;;;;;;;;;5039429;28;20578;-61
2022/05/04 09:14:09;;;;;;;6.60;2.13;;;;;;;;;;5047969;28;20140;-61
2022/05/04 09:16:35;;;;;;;6.83;1.73;;;;;;;;;;5040307;28;20041;-61
2022/05/04 09:19:02;;;;;;;11.43;2.50;;;;;;;;;;5028437;28;20053;-61
2022/05/04 09:21:28;;;;;;;5.97;2.00;;;;;;;;;;5029611;28;20037;-61
2022/05/04 09:23:54;;;;;;;4.63;1.90;;;;;;;;;;5042507;28;20077;-61
2022/05/04 09:26:20;;;;;;;11.27;3.10;;;;;;;;;;5048885;28;20080;-61
2022/05/04 09:28:57;;;;;;;7.97;1.67;;;;;;;;;;5045895;28;20600;-61
2022/05/04 09:31:24;;;;;;;8.00;2.07;;;;;;;;;;5031718;28;20088;-61
2022/05/04 09:33:54;;;;;;;10.63;2.13;;;;;;;;;;5031771;28;20049;-61
2022/05/04 09:36:36;;;;;;;10.87;2.17;;;;;;;;;;5030153;28;20060;-61
2022/05/04 09:45:11;;;;;;;7.20;2.00;;;;;;;;;;5051427;28;20045;-61
2022/05/04 09:47:40;;;;;;;8.43;2.53;;;;;;;;;;5050839;28;20458;-62
2022/05/04 09:50:08;;;;;;;6.23;2.73;;;;;;;;;;5051418;28;20095;-61
2022/05/04 09:52:41;;;;;;;8.13;2.57;;;;;;;;;;5050271;28;20090;-62
2022/05/04 09:55:16;;;;;;;9.57;2.17;;;;;;;;;;5047881;28;20047;-61
2022/05/04 09:57:46;;;;;;;10.60;2.30;;;;;;;;;;5055993;28;20049;-62
2022/05/04 10:00:13;;;;;;;5.03;1.93;;;;;;;;;;5039167;28;20049;-62
2022/05/04 10:02:40;;;;;;;5.20;1.97;;;;;;;;;;5039651;28;20782;-62
2022/05/04 10:05:06;;;;;;;9.03;2.27;;;;;;;;;;5050403;28;20044;-62
2022/05/04 10:07:32;;;;;;;5.70;1.93;;;;;;;;;;5050444;28;20045;-62
2022/05/04 10:09:58;;;;;;;11.07;2.57;;;;;;;;;;5047540;28;20091;-62
2022/05/04 10:12:27;;;;;;;9.90;2.37;;;;;;;;;;5036237;28;20049;-62
2022/05/04 10:14:55;;;;;;;5.63;2.20;;;;;;;;;;5047407;28;20094;-62
2022/05/04 10:17:22;;;;;;;8.20;2.00;;;;;;;;;;5037928;28;20055;-62
2022/05/04 10:19:54;;;;;;;8.23;2.40;;;;;;;;;;5046012;28;20198;-62
2022/05/04 10:22:30;;;;;;;8.25;2.90;;;;;;;;;;5052914;28;20452;-62
2022/05/04 10:24:57;;;;;;;9.60;2.23;;;;;;;;;;5047550;28;20037;-62
2022/05/04 10:27:25;;;;;;;12.20;2.00;;;;;;;;;;5042340;28;20191;-62
2022/05/04 10:32:51;;;;;;;8.70;2.30;;;;;;;;;;5031667;28;20052;-62
2022/05/04 10:35:18;;;;;;;10.23;2.73;;;;;;;;;;5047939;28;20049;-62
2022/05/04 10:37:55;;;;;;;12.47;2.30;;;;;;;;;;5049310;28;20106;-62
2022/05/04 10:40:24;;;;;;;7.80;1.93;;;;;;;;;;5051562;28;20101;-62
2022/05/04 10:42:57;;;;;;;8.33;2.30;;;;;;;;;;5050602;28;20044;-62
2022/05/04 10:45:23;;;;;;;;;;;;;;;;;;5041760;28;20128;-62
2022/05/04 10:47:50;;;;;;;4.70;1.90;;;;;;;;;;5048293;28;19920;-62
2022/05/04 10:50:19;;;;;;;9.07;2.22;;;;;;;;;;5050940;28;20041;-62
2022/05/04 10:52:48;;;;;;;6.60;2.10;;;;;;;;;;5055600;28;20110;-62
2022/05/04 10:55:14;;;;;;;6.50;2.60;;;;;;;;;;5054788;28;20041;-63
2022/05/04 10:57:41;;;;;;;6.18;2.58;;;;;;;;;;5041878;28;20489;-62
2022/05/04 11:00:10;;;;;;;8.25;3.05;;;;;;;;;;5042154;28;20049;-62
2022/05/04 11:02:36;;;;;;;6.43;1.98;;;;;;;;;;5054288;28;20048;-62
2022/05/04 11:05:11;;;;;;;10.50;2.33;;;;;;;;;;5043425;28;20402;-62
2022/05/04 11:07:38;;;;;;;7.93;2.22;;;;;;;;;;5032315;28;20460;-62
2022/05/04 11:10:04;;;;;;;7.60;2.78;;;;;;;;;;5049372;28;20460;-62
2022/05/04 11:12:30;;;;;;;10.48;2.40;;;;;;;;;;5048693;28;20406;-62
2022/05/04 11:14:56;;;;;;;5.72;1.88;;;;;;;;;;5028783;28;20045;-62
2022/05/04 11:17:22;;;;;;;8.32;2.47;;;;;;;;;;5028251;28;20132;-62
2022/05/04 11:19:48;;;;;;;10.32;2.08;;;;;;;;;;5029239;28;20053;-60
2022/05/04 11:22:15;;;;;;;10.10;2.50;;;;;;;;;;5029285;28;20522;-60
2022/05/04 11:24:43;;;;;;;7.85;2.00;;;;;;;;;;5028998;28;20470;-59
2022/05/04 11:27:11;;;;;;;7.00;2.20;;;;;;;;;;5029559;28;20045;-60
2022/05/04 11:29:38;;;;;;;5.60;2.17;;;;;;;;;;5029203;28;20103;-60
2022/05/04 11:32:05;;;;;;;5.18;1.75;;;;;;;;;;5029179;28;20049;-60
2022/05/04 11:34:35;;;;;;;9.02;2.50;;;;;;;;;;5028937;28;20053;-59
2022/05/04 11:37:03;;;;;;;10.45;2.13;;;;;;;;;;5028841;28;20053;-60
2022/05/04 11:39:30;;;;;;;8.70;2.17;;;;;;;;;;5028489;28;20507;-60
2022/05/04 11:41:56;;;;;;;6.70;2.63;;;;;;;;;;5027787;28;20076;-60
2022/05/04 11:44:23;;;;;;;7.25;2.25;;;;;;;;;;5028686;28;20038;-59
2022/05/04 11:46:53;;;;;;;7.13;2.30;;;;;;;;;;5028828;28;20175;-60
2022/05/04 11:49:20;;;;;;;7.10;2.40;;;;;;;;;;5028874;28;20049;-62
2022/05/04 11:51:46;;;;;;;7.72;2.50;;;;;;;;;;5028548;28;20037;-59
2022/05/04 11:54:12;;;;;;;11.15;2.58;;;;;;;;;;5028806;28;20042;-59
2022/05/04 11:56:38;;;;;;;6.90;2.80;;;;;;;;;;5029323;28;20052;-59
2022/05/04 11:59:07;;;;;;;10.20;2.40;;;;;;;;;;5030473;28;20372;-60
2022/05/04 12:01:33;;;;;;;7.72;2.30;;;;;;;;;;5048298;28;20049;-59
2022/05/04 12:03:59;;;;;;;10.55;2.38;;;;;;;;;;5048279;28;20054;-60
2022/05/04 12:06:25;;;;;;;10.75;2.92;;;;;;;;;;5048426;28;20044;-60
2022/05/04 12:08:52;;;;;;;8.63;2.70;;;;;;;;;;5048169;28;20048;-59
2022/05/04 12:11:18;;;;;;;6.20;2.47;;;;;;;;;;5048412;28;20111;-60
2022/05/04 12:13:44;;;;;;;6.53;2.10;;;;;;;;;;5048245;28;20041;-60
2022/05/04 12:16:11;;;;;;;8.32;2.40;;;;;;;;;;5048620;28;20392;-60
2022/05/04 12:18:38;;;;;;;6.95;2.50;;;;;;;;;;5048300;28;20036;-60
2022/05/04 12:21:08;;;;;;;8.65;2.70;;;;;;;;;;5048036;28;20078;-60
2022/05/04 12:23:39;;;;;;;7.18;2.88;;;;;;;;;;5048324;28;20414;-60
2022/05/04 12:26:06;;;;;;;14.20;3.20;;;;;;;;;;5047076;28;20048;-60
2022/05/04 12:28:32;;;;;;;8.02;2.10;;;;;;;;;;5048908;28;20462;-60
2022/05/04 12:33:44;;;;;;;9.77;2.30;;;;;;;;;;5047636;28;20082;-60
2022/05/04 12:36:12;;;;;;;9.02;2.22;;;;;;;;;;5048090;28;20045;-60
2022/05/04 12:38:38;;;;;;;6.80;2.35;;;;;;;;;;5048384;28;20517;-60
2022/05/04 12:41:06;;;;;;;8.48;2.25;;;;;;;;;;5047235;28;20044;-60
2022/05/04 12:43:36;;;;;;;6.60;2.35;;;;;;;;;;5047916;28;20123;-60
2022/05/04 12:46:02;;;;;;;7.32;2.30;;;;;;;;;;5047441;28;20128;-60
2022/05/04 12:48:28;;;;;;;6.20;2.55;;;;;;;;;;5048021;28;20123;-60
2022/05/04 12:50:55;;;;;;;5.38;2.20;;;;;;;;;;5048069;28;20052;-61
2022/05/04 12:53:23;;;;;;;6.55;2.88;;;;;;;;;;5047801;28;20136;-60
2022/05/04 12:58:33;;;;;;;8.02;2.95;;;;;;;;;;5047295;28;20080;-60
2022/05/04 13:01:01;;;;;;;8.60;3.05;;;;;;;;;;5048910;28;20083;-60
2022/05/04 13:03:27;;;;;;;7.25;2.50;;;;;;;;;;5051805;28;20041;-60
2022/05/04 13:05:53;;;;;;;5.57;2.45;;;;;;;;;;5050967;28;20041;-60
2022/05/04 13:08:19;;;;;;;7.43;2.50;;;;;;;;;;5051929;28;20041;-60
2022/05/04 13:10:48;;;;;;;7.45;2.28;;;;;;;;;;5051906;28;20044;-60
2022/05/04 13:13:14;;;;;;;6.00;2.50;;;;;;;;;;5051424;28;20044;-60
2022/05/04 13:15:40;;;;;;;10.75;3.03;;;;;;;;;;5051265;28;20456;-60
2022/05/04 13:18:08;;;;;;;5.68;2.50;;;;;;;;;;5051971;28;20041;-60
2022/05/04 13:20:34;;;;;;;5.85;2.67;;;;;;;;;;5051785;28;20052;-60
2022/05/04 13:23:00;;;;;;;7.13;2.53;;;;;;;;;;5051583;28;20049;-60
2022/05/04 13:25:26;;;;;;;7.05;2.85;;;;;;;;;;5051687;28;20045;-61
2022/05/04 13:27:53;;;;;;;6.40;2.30;;;;;;;;;;5051078;28;20044;-60
2022/05/04 13:30:19;;;;;;;8.65;3.10;;;;;;;;;;5051114;28;20530;-60
2022/05/04 13:32:45;;;;;;;10.85;2.78;;;;;;;;;;5051335;28;20041;-60
2022/05/04 13:35:11;;;;;;;5.55;2.28;;;;;;;;;;5049096;28;21923;-60
2022/05/04 13:37:37;;;;;;;7.22;2.53;;;;;;;;;;5051313;28;20526;-60
2022/05/04 13:40:03;;;;;;;7.45;2.47;;;;;;;;;;5050611;28;20045;-60
2022/05/04 13:42:29;;;;;;;6.38;2.22;;;;;;;;;;5051091;28;20053;-60
2022/05/04 13:44:55;;;;;;;5.95;2.10;;;;;;;;;;5051224;28;20092;-60
2022/05/04 13:47:21;;;;;;;10.73;3.25;;;;;;;;;;5051027;28;20052;-60
2022/05/04 13:49:47;;;;;;;10.75;2.60;;;;;;;;;;5050759;28;20053;-60
2022/05/04 13:54:58;;;;;;;7.20;2.63;;;;;;;;;;5050643;28;20084;-60
2022/05/04 13:57:25;;;;;;;6.80;2.47;;;;;;;;;;5050763;28;20120;-60
2022/05/04 13:59:51;;;;;;;5.93;2.30;;;;;;;;;;5037639;28;20140;-60
2022/05/04 14:02:17;;;;;;;5.82;2.33;;;;;;;;;;5030805;28;20136;-60
2022/05/04 14:04:43;;;;;;;9.48;2.05;;;;;;;;;;5030887;28;20137;-60
2022/05/04 14:07:09;;;;;;;10.18;2.20;;;;;;;;;;5030859;28;20136;-60
2022/05/04 14:09:35;;;;;;;10.20;2.80;;;;;;;;;;5030939;28;20037;-60
2022/05/04 14:12:01;;;;;;;7.80;2.35;;;;;;;;;;5030414;28;20123;-60
2022/05/04 14:17:12;;;;;;;7.30;2.28;;;;;;;;;;5049512;28;20055;-60
2022/05/04 14:19:38;;;;;;;10.93;2.17;;;;;;;;;;5049912;28;20471;-60
2022/05/04 14:22:05;;;;;;;5.55;2.20;;;;;;;;;;5043869;28;20700;-60
2022/05/04 14:24:31;;;;;;;6.15;2.05;;;;;;;;;;5038784;28;20042;-60
2022/05/04 14:26:57;;;;;;;7.50;2.92;;;;;;;;;;5039730;28;20045;-60
2022/05/04 14:29:23;;;;;;;6.90;2.30;;;;;;;;;;5040198;28;20111;-60
2022/05/04 14:31:49;;;;;;;6.30;2.63;;;;;;;;;;5038041;28;20164;-60
2022/05/04 14:34:16;;;;;;;5.07;2.05;;;;;;;;;;5039858;28;20037;-60
2022/05/04 14:36:42;;;;;;;6.32;2.75;;;;;;;;;;5037120;28;20045;-61
2022/05/04 14:39:08;;;;;;;6.30;2.15;;;;;;;;;;5039539;28;20124;-61
2022/05/04 14:41:34;;;;;;;4.60;2.38;;;;;;;;;;5044046;28;20045;-60
2022/05/04 14:44:00;;;;;;;5.15;2.00;;;;;;;;;;5045605;28;20033;-60
2022/05/04 14:46:26;;;;;;;5.40;2.00;;;;;;;;;;5035600;28;20426;-60
2022/05/04 14:48:53;;;;;;;6.68;2.20;;;;;;;;;;5037828;28;20498;-60
2022/05/04 14:51:19;;;;;;;10.40;2.20;;;;;;;;;;5037463;28;20063;-60
2022/05/04 14:53:50;;;;;;;6.28;1.90;;;;;;;;;;5033581;28;20056;-60
2022/05/04 14:56:16;;;;;;;7.93;2.40;;;;;;;;;;5034218;28;20120;-60
2022/05/04 14:58:42;;;;;;;5.53;2.13;;;;;;;;;;5033672;28;20048;-60
2022/05/04 15:01:08;;;;;;;10.07;2.97;;;;;;;;;;5047131;28;20049;-60
2022/05/04 15:06:19;;;;;;;8.63;2.88;;;;;;;;;;5049198;28;20408;-60
2022/05/04 15:08:45;;;;;;;7.20;2.78;;;;;;;;;;5043395;28;20036;-60
2022/05/04 15:11:11;;;;;;;7.43;2.40;;;;;;;;;;5029847;28;20049;-60
2022/05/04 15:13:37;;;;;;;7.35;2.40;;;;;;;;;;5040373;28;20071;-60
2022/05/04 15:16:03;;;;;;;7.90;2.67;;;;;;;;;;5043921;28;20112;-60
2022/05/04 15:18:29;;;;;;;8.50;2.58;;;;;;;;;;5036145;28;20103;-60
2022/05/04 15:20:56;;;;;;;7.25;2.50;;;;;;;;;;5048380;28;20502;-60
2022/05/04 15:23:22;;;;;;;6.68;2.60;;;;;;;;;;5047647;28;20593;-60